createdAt,value
2022-08-26T00:01:45.338Z,100491.23
2022-08-26T00:06:48.509Z,100488.48
2022-08-26T00:11:52.239Z,100484.86
2022-08-26T00:16:55.175Z,100478.39
2022-08-26T00:21:58.201Z,100486.64
2022-08-26T00:27:00.957Z,100485.59
2022-08-26T00:32:04.177Z,100478.98
2022-08-26T00:37:08.725Z,100473.05
2022-08-26T00:42:13.100Z,100474.22
2022-08-26T00:47:34.113Z,100468.77
2022-08-26T00:52:37.748Z,100464.60
2022-08-26T00:57:42.582Z,100467.23
2022-08-26T01:02:47.686Z,100466.57
2022-08-26T01:07:50.772Z,100472.98
2022-08-26T01:12:58.219Z,100475.12
2022-08-26T01:18:04.070Z,100476.52
2022-08-26T01:23:08.678Z,100465.69
2022-08-26T01:28:21.825Z,100469.09
2022-08-26T01:33:31.799Z,100464.80
2022-08-26T01:38:45.244Z,100466.98
2022-08-26T01:43:53.339Z,100472.83
2022-08-26T01:49:00.263Z,100475.30
2022-08-26T01:54:06.001Z,100477.96
2022-08-26T01:59:12.539Z,100474.52
2022-08-26T02:04:39.981Z,100471.52
2022-08-26T02:09:51.152Z,100472.05
2022-08-26T02:14:58.119Z,100469.66
2022-08-26T02:20:02.434Z,100469.77
2022-08-26T02:25:12.111Z,100467.27
2022-08-26T02:30:25.442Z,100467.67
2022-08-26T02:35:29.184Z,100467.02
2022-08-26T02:40:39.313Z,100460.25
2022-08-26T02:45:43.047Z,100464.77
2022-08-26T02:50:46.356Z,100467.64
2022-08-26T02:55:49.589Z,100464.62
2022-08-26T03:00:53.786Z,100469.71
2022-08-26T03:05:57.718Z,100464.06
2022-08-26T03:11:01.665Z,100459.90
2022-08-26T03:16:05.043Z,100458.34
2022-08-26T03:21:14.570Z,100452.98
2022-08-26T03:26:17.478Z,100454.94
2022-08-26T03:31:20.200Z,100454.27
2022-08-26T03:36:27.559Z,100446.73
2022-08-26T03:41:32.722Z,100444.55
2022-08-26T03:46:35.632Z,100443.42
2022-08-26T03:51:39.215Z,100442.66
2022-08-26T03:56:41.935Z,100440.58
2022-08-26T04:01:44.690Z,100445.80
2022-08-26T04:06:47.619Z,100444.52
2022-08-26T04:11:50.896Z,100447.25
2022-08-26T04:16:56.706Z,100451.02
2022-08-26T04:22:00.267Z,100456.23
2022-08-26T04:27:03.869Z,100459.98
2022-08-26T04:32:08.820Z,100463.77
2022-08-26T04:37:12.113Z,100462.92
2022-08-26T04:42:19.886Z,100463.42
2022-08-26T04:47:32.212Z,100461.39
2022-08-26T04:52:36.894Z,100467.30
2022-08-26T04:57:40.465Z,100467.88
2022-08-26T05:02:43.299Z,100470.95
2022-08-26T05:07:46.012Z,100471.66
2022-08-26T05:12:49.090Z,100474.15
2022-08-26T05:17:52.053Z,100472.91
2022-08-26T05:22:54.726Z,100479.18
2022-08-26T05:27:58.126Z,100476.88
2022-08-26T05:33:02.015Z,100482.98
2022-08-26T05:38:12.390Z,100490.46
2022-08-26T05:43:16.849Z,100492.46
2022-08-26T05:48:24.356Z,100494.00
2022-08-26T05:53:27.372Z,100496.56
2022-08-26T05:58:30.063Z,100496.63
2022-08-26T06:03:37.433Z,100491.98
2022-08-26T06:08:41.005Z,100487.46
2022-08-26T06:13:45.042Z,100488.78
2022-08-26T06:18:50.993Z,100485.42
2022-08-26T06:24:13.665Z,100487.16
2022-08-26T06:29:24.041Z,100486.52
2022-08-26T06:34:31.092Z,100487.25
2022-08-26T06:39:34.599Z,100487.13
2022-08-26T06:44:38.046Z,100492.04
2022-08-26T06:49:44.223Z,100495.25
2022-08-26T06:54:47.285Z,100499.50
2022-08-26T06:59:51.237Z,100498.12
2022-08-26T07:04:54.436Z,100490.50
2022-08-26T07:10:00.475Z,100498.45
2022-08-26T07:15:04.922Z,100498.43
2022-08-26T07:20:09.107Z,100497.31
2022-08-26T07:25:12.329Z,100495.79
2022-08-26T07:30:15.224Z,100489.23
2022-08-26T07:35:18.459Z,100489.21
2022-08-26T07:40:22.408Z,100493.23
2022-08-26T07:45:25.394Z,100493.66
2022-08-26T07:50:49.294Z,100488.39
2022-08-26T07:55:51.556Z,100491.62
2022-08-26T08:00:55.195Z,100496.68
2022-08-26T08:05:57.973Z,100495.59
2022-08-26T08:11:01.460Z,100496.44
2022-08-26T08:16:05.738Z,100497.48
2022-08-26T08:21:21.151Z,100491.15
2022-08-26T08:26:26.642Z,100494.20
2022-08-26T08:31:55.766Z,100479.73
2022-08-26T08:36:57.198Z,100474.71
2022-08-26T08:42:06.567Z,100472.55
2022-08-26T08:47:35.626Z,100472.04
2022-08-26T08:52:41.474Z,100473.27
2022-08-26T08:58:02.271Z,100468.99
2022-08-26T09:03:37.746Z,100468.00
2022-08-26T09:08:41.718Z,100466.50
2022-08-26T09:13:54.166Z,100469.48
2022-08-26T09:19:35.022Z,100464.80
2022-08-26T09:24:41.884Z,100466.21
2022-08-26T09:29:51.001Z,100459.74
2022-08-26T09:35:00.197Z,100455.30
2022-08-26T09:40:34.554Z,100448.90
2022-08-26T09:45:41.450Z,100442.70
2022-08-26T09:50:54.812Z,100437.79
2022-08-26T09:56:22.156Z,100438.10
2022-08-26T10:01:34.969Z,100434.33
2022-08-26T10:06:43.738Z,100437.02
2022-08-26T10:11:51.979Z,100438.15
2022-08-26T10:17:02.508Z,100433.79
2022-08-26T10:22:16.805Z,100435.14
2022-08-26T10:27:53.403Z,100431.32
2022-08-26T10:33:03.889Z,100435.67
2022-08-26T10:38:15.196Z,100429.38
2022-08-26T10:43:26.400Z,100428.91
2022-08-26T10:49:00.057Z,100425.96
2022-08-26T10:54:29.103Z,100427.89
2022-08-26T10:59:56.197Z,100422.27
2022-08-26T11:05:16.971Z,100418.11
2022-08-26T11:10:19.837Z,100411.43
2022-08-26T11:15:26.508Z,100409.73
2022-08-26T11:20:42.329Z,100401.04
2022-08-26T11:26:08.725Z,100400.73
2022-08-26T11:31:34.552Z,100389.25
2022-08-26T11:36:40.750Z,100386.83
2022-08-26T11:41:46.750Z,100381.94
2022-08-26T11:47:00.997Z,100381.73
2022-08-26T11:52:18.119Z,100376.98
2022-08-26T11:57:24.160Z,100374.60
2022-08-26T12:02:27.999Z,100360.49
2022-08-26T12:07:30.838Z,100361.03
2022-08-26T12:12:37.872Z,100354.83
2022-08-26T12:17:41.968Z,100348.06
2022-08-26T12:22:48.148Z,100341.89
2022-08-26T12:27:54.081Z,100333.75
2022-08-26T12:33:14.174Z,100330.36
2022-08-26T12:38:28.123Z,100326.06
2022-08-26T12:43:40.633Z,100319.77
2022-08-26T12:48:48.968Z,100311.33
2022-08-26T12:53:52.563Z,100314.55
2022-08-26T12:59:10.242Z,100310.40
2022-08-26T13:04:35.361Z,100302.59
2022-08-26T13:09:38.674Z,100293.29
2022-08-26T13:14:41.578Z,100290.02
2022-08-26T13:19:44.429Z,100282.79
2022-08-26T13:24:47.487Z,100279.97
2022-08-26T13:29:51.417Z,100271.77
2022-08-26T13:34:55.752Z,100269.03
2022-08-26T13:39:59.305Z,100266.78
2022-08-26T13:45:02.893Z,100262.80
2022-08-26T13:50:06.454Z,100259.98
2022-08-26T13:55:12.095Z,100252.11
2022-08-26T14:00:17.477Z,100247.27
2022-08-26T14:05:20.343Z,100246.61
2022-08-26T14:10:24.285Z,100240.80
2022-08-26T14:15:28.023Z,100232.88
2022-08-26T14:20:33.666Z,100229.48
2022-08-26T14:25:36.463Z,100227.30
2022-08-26T14:30:42.441Z,100218.48
2022-08-26T14:35:49.006Z,100214.46
2022-08-26T14:40:52.958Z,100210.61
2022-08-26T14:45:56.067Z,100206.19
2022-08-26T14:50:59.073Z,100204.28
2022-08-26T14:56:02.491Z,100202.97
2022-08-26T15:01:07.952Z,100197.67
2022-08-26T15:06:11.675Z,100188.17
2022-08-26T15:11:14.783Z,100181.94
2022-08-26T15:16:17.724Z,100179.44
2022-08-26T15:21:22.244Z,100182.57
2022-08-26T15:26:25.235Z,100175.58
2022-08-26T15:31:31.465Z,100168.52
2022-08-26T15:36:37.290Z,100167.15
2022-08-26T15:41:41.217Z,100162.57
2022-08-26T15:46:44.710Z,100156.24
2022-08-26T15:51:50.712Z,100151.52
2022-08-26T15:56:53.942Z,100146.52
2022-08-26T16:01:58.231Z,100144.93
2022-08-26T16:07:01.470Z,100141.85
2022-08-26T16:12:04.601Z,100141.33
2022-08-26T16:17:07.483Z,100134.19
2022-08-26T16:22:10.391Z,100132.88
2022-08-26T16:27:13.242Z,100129.49
2022-08-26T16:32:16.399Z,100132.00
2022-08-26T16:37:19.303Z,100126.77
2022-08-26T16:42:22.309Z,100123.33
2022-08-26T16:47:25.728Z,100122.33
2022-08-26T16:52:30.184Z,100118.37
2022-08-26T16:57:39.647Z,100121.52
2022-08-26T17:02:42.555Z,100128.83
2022-08-26T17:07:45.532Z,100129.55
2022-08-26T17:12:48.943Z,100133.47
2022-08-26T17:17:52.262Z,100134.42
2022-08-26T17:22:55.623Z,100135.75
2022-08-26T17:27:59.368Z,100135.99
2022-08-26T17:33:02.379Z,100135.23
2022-08-26T17:38:14.095Z,100140.25
2022-08-26T17:43:17.820Z,100143.79
2022-08-26T17:48:20.496Z,100151.20
2022-08-26T17:53:24.994Z,100159.77
2022-08-26T17:58:27.693Z,100166.44
2022-08-26T18:03:32.687Z,100167.93
2022-08-26T18:08:35.690Z,100166.55
2022-08-26T18:13:39.389Z,100176.95
2022-08-26T18:18:53.531Z,100180.20
2022-08-26T18:23:57.473Z,100184.25
2022-08-26T18:29:00.414Z,100182.84
2022-08-26T18:34:03.468Z,100185.57
2022-08-26T18:39:08.430Z,100192.87
2022-08-26T18:44:13.823Z,100195.41
2022-08-26T18:49:19.033Z,100201.84
2022-08-26T18:54:22.188Z,100205.61
2022-08-26T18:59:29.712Z,100212.61
2022-08-26T19:04:33.313Z,100214.02
2022-08-26T19:09:36.512Z,100219.17
2022-08-26T19:14:39.269Z,100215.95
2022-08-26T19:19:42.206Z,100217.13
2022-08-26T19:24:44.917Z,100223.69
2022-08-26T19:29:47.837Z,100226.11
2022-08-26T19:34:52.233Z,100231.55
2022-08-26T19:39:55.069Z,100230.77
2022-08-26T19:45:24.726Z,100235.61
2022-08-26T19:50:30.706Z,100238.86
2022-08-26T19:55:33.868Z,100241.89
2022-08-26T20:00:39.779Z,100248.61
2022-08-26T20:05:42.629Z,100249.74
2022-08-26T20:10:46.810Z,100244.27
2022-08-26T20:15:49.534Z,100246.79
2022-08-26T20:21:30.771Z,100249.08
2022-08-26T20:26:35.518Z,100248.21
2022-08-26T20:31:39.414Z,100247.63
2022-08-26T20:36:43.189Z,100250.27
2022-08-26T20:41:46.073Z,100255.52
2022-08-26T20:46:49.181Z,100253.83
2022-08-26T20:51:52.739Z,100247.52
2022-08-26T20:56:57.056Z,100243.90
2022-08-26T21:02:00.657Z,100242.98
2022-08-26T21:07:03.564Z,100244.99
2022-08-26T21:12:08.105Z,100238.59
2022-08-26T21:17:11.008Z,100237.89
2022-08-26T21:22:14.348Z,100233.42
2022-08-26T21:27:17.686Z,100230.41
2022-08-26T21:32:29.244Z,100226.02
2022-08-26T21:37:32.353Z,100226.20
2022-08-26T21:42:36.176Z,100232.06
2022-08-26T21:47:39.724Z,100236.24
2022-08-26T21:52:42.597Z,100234.61
2022-08-26T21:57:45.808Z,100235.77
2022-08-26T22:02:50.453Z,100234.52
2022-08-26T22:07:53.776Z,100234.39
2022-08-26T22:12:56.773Z,100232.88
2022-08-26T22:17:59.782Z,100231.02
2022-08-26T22:23:02.785Z,100235.15
2022-08-26T22:28:06.502Z,100230.77
2022-08-26T22:33:09.923Z,100233.30
2022-08-26T22:38:13.722Z,100239.90
2022-08-26T22:43:18.559Z,100241.28
2022-08-26T22:48:24.174Z,100237.36
2022-08-26T22:53:27.388Z,100236.55
2022-08-26T22:58:30.981Z,100228.39
2022-08-26T23:03:35.322Z,100230.48
2022-08-26T23:08:39.676Z,100226.14
2022-08-26T23:13:42.987Z,100213.11
2022-08-26T23:18:46.093Z,100213.63
2022-08-26T23:23:49.071Z,100213.02
2022-08-26T23:28:53.436Z,100212.66
2022-08-26T23:34:15.184Z,100208.53
2022-08-26T23:39:18.187Z,100204.35
2022-08-26T23:44:21.436Z,100202.50
2022-08-26T23:49:25.625Z,100200.09
2022-08-26T23:54:28.540Z,100198.27
2022-08-26T23:59:32.005Z,100190.73
